sensor_id;sensor_type;location;lat;lon;timestamp;P1;durP1;ratioP1;P2;durP2;ratioP2
23169;SDS011;11753;43.144;24.714;2023-03-14T00:00:57;10.13;;;6.43;;
23169;SDS011;11753;43.144;24.714;2023-03-14T00:01:57;8.80;;;5.63;;
23169;SDS011;11753;43.144;24.714;2023-03-14T00:02:58;12.18;;;5.55;;
23169;SDS011;11753;43.144;24.714;2023-03-14T00:03:59;8.73;;;5.68;;
23169;SDS011;11753;43.144;24.714;2023-03-14T00:05:00;10.20;;;6.07;;
23169;SDS011;11753;43.144;24.714;2023-03-14T00:06:03;8.73;;;5.30;;
23169;SDS011;11753;43.144;24.714;2023-03-14T00:07:05;9.20;;;5.53;;
23169;SDS011;11753;43.144;24.714;2023-03-14T00:08:05;8.20;;;5.50;;
23169;SDS011;11753;43.144;24.714;2023-03-14T00:09:07;8.38;;;5.05;;
23169;SDS011;11753;43.144;24.714;2023-03-14T00:10:09;9.02;;;5.43;;
23169;SDS011;11753;43.144;24.714;2023-03-14T00:11:17;8.27;;;4.90;;
23169;SDS011;11753;43.144;24.714;2023-03-14T00:12:19;8.40;;;5.65;;
23169;SDS011;11753;43.144;24.714;2023-03-14T00:13:20;9.32;;;5.35;;
23169;SDS011;11753;43.144;24.714;2023-03-14T00:14:21;8.48;;;5.18;;
23169;SDS011;11753;43.144;24.714;2023-03-14T00:15:22;7.72;;;4.75;;
23169;SDS011;11753;43.144;24.714;2023-03-14T00:16:23;7.03;;;4.97;;
23169;SDS011;11753;43.144;24.714;2023-03-14T00:17:27;8.65;;;5.07;;
23169;SDS011;11753;43.144;24.714;2023-03-14T00:18:29;7.45;;;4.85;;
23169;SDS011;11753;43.144;24.714;2023-03-14T00:19:30;7.15;;;4.68;;
23169;SDS011;11753;43.144;24.714;2023-03-14T00:20:31;7.35;;;4.47;;
23169;SDS011;11753;43.144;24.714;2023-03-14T00:21:31;8.68;;;4.95;;
23169;SDS011;11753;43.144;24.714;2023-03-14T00:22:32;8.23;;;4.70;;
23169;SDS011;11753;43.144;24.714;2023-03-14T00:23:33;9.50;;;4.95;;
23169;SDS011;11753;43.144;24.714;2023-03-14T00:24:36;8.27;;;4.75;;
23169;SDS011;11753;43.144;24.714;2023-03-14T00:25:36;7.30;;;4.70;;
23169;SDS011;11753;43.144;24.714;2023-03-14T00:26:37;7.63;;;4.70;;
23169;SDS011;11753;43.144;24.714;2023-03-14T00:27:38;8.50;;;4.63;;
23169;SDS011;11753;43.144;24.714;2023-03-14T00:28:40;8.95;;;5.00;;
23169;SDS011;11753;43.144;24.714;2023-03-14T00:29:42;9.63;;;4.82;;
23169;SDS011;11753;43.144;24.714;2023-03-14T00:30:47;8.30;;;4.47;;
23169;SDS011;11753;43.144;24.714;2023-03-14T00:31:48;10.13;;;4.80;;
23169;SDS011;11753;43.144;24.714;2023-03-14T00:32:49;7.50;;;4.88;;
23169;SDS011;11753;43.144;24.714;2023-03-14T00:33:51;7.18;;;4.57;;
23169;SDS011;11753;43.144;24.714;2023-03-14T00:34:53;7.43;;;4.55;;
23169;SDS011;11753;43.144;24.714;2023-03-14T00:35:58;7.30;;;4.80;;
23169;SDS011;11753;43.144;24.714;2023-03-14T00:37:01;11.13;;;4.60;;
23169;SDS011;11753;43.144;24.714;2023-03-14T00:38:02;9.52;;;5.22;;
23169;SDS011;11753;43.144;24.714;2023-03-14T00:39:03;7.00;;;4.28;;
23169;SDS011;11753;43.144;24.714;2023-03-14T00:40:04;7.45;;;4.75;;
23169;SDS011;11753;43.144;24.714;2023-03-14T00:41:12;8.68;;;5.30;;
23169;SDS011;11753;43.144;24.714;2023-03-14T00:42:15;7.22;;;4.50;;
23169;SDS011;11753;43.144;24.714;2023-03-14T00:43:15;7.68;;;4.57;;
23169;SDS011;11753;43.144;24.714;2023-03-14T00:44:16;7.80;;;5.07;;
23169;SDS011;11753;43.144;24.714;2023-03-14T00:45:16;10.02;;;5.35;;
23169;SDS011;11753;43.144;24.714;2023-03-14T00:46:17;7.97;;;4.90;;
23169;SDS011;11753;43.144;24.714;2023-03-14T00:47:19;10.63;;;5.35;;
23169;SDS011;11753;43.144;24.714;2023-03-14T00:48:20;9.02;;;5.35;;
23169;SDS011;11753;43.144;24.714;2023-03-14T00:49:21;10.32;;;5.57;;
23169;SDS011;11753;43.144;24.714;2023-03-14T00:50:22;7.55;;;4.90;;
23169;SDS011;11753;43.144;24.714;2023-03-14T00:51:23;8.82;;;5.22;;
23169;SDS011;11753;43.144;24.714;2023-03-14T00:52:24;10.18;;;5.00;;
23169;SDS011;11753;43.144;24.714;2023-03-14T00:53:25;9.43;;;4.95;;
23169;SDS011;11753;43.144;24.714;2023-03-14T00:54:26;9.95;;;5.68;;
23169;SDS011;11753;43.144;24.714;2023-03-14T00:55:27;10.52;;;5.57;;
23169;SDS011;11753;43.144;24.714;2023-03-14T00:56:28;8.80;;;5.35;;
23169;SDS011;11753;43.144;24.714;2023-03-14T00:57:29;10.43;;;4.75;;
23169;SDS011;11753;43.144;24.714;2023-03-14T00:58:29;9.20;;;5.72;;
23169;SDS011;11753;43.144;24.714;2023-03-14T00:59:30;8.30;;;5.10;;
23169;SDS011;11753;43.144;24.714;2023-03-14T01:00:31;11.43;;;5.28;;
23169;SDS011;11753;43.144;24.714;2023-03-14T01:01:33;9.95;;;5.32;;
23169;SDS011;11753;43.144;24.714;2023-03-14T01:02:34;13.02;;;5.63;;
23169;SDS011;11753;43.144;24.714;2023-03-14T01:03:35;9.95;;;5.53;;
23169;SDS011;11753;43.144;24.714;2023-03-14T01:04:36;9.30;;;5.57;;
23169;SDS011;11753;43.144;24.714;2023-03-14T01:05:38;9.77;;;5.60;;
23169;SDS011;11753;43.144;24.714;2023-03-14T01:06:39;8.63;;;5.53;;
23169;SDS011;11753;43.144;24.714;2023-03-14T01:07:41;11.13;;;6.05;;
23169;SDS011;11753;43.144;24.714;2023-03-14T01:08:42;9.35;;;5.20;;
23169;SDS011;11753;43.144;24.714;2023-03-14T01:09:43;8.55;;;4.93;;
23169;SDS011;11753;43.144;24.714;2023-03-14T01:10:43;9.10;;;5.30;;
23169;SDS011;11753;43.144;24.714;2023-03-14T01:11:44;7.85;;;4.97;;
23169;SDS011;11753;43.144;24.714;2023-03-14T01:12:46;10.35;;;5.18;;
23169;SDS011;11753;43.144;24.714;2023-03-14T01:13:47;11.93;;;5.68;;
23169;SDS011;11753;43.144;24.714;2023-03-14T01:14:49;8.50;;;4.90;;
23169;SDS011;11753;43.144;24.714;2023-03-14T01:15:50;9.10;;;4.85;;
23169;SDS011;11753;43.144;24.714;2023-03-14T01:16:51;11.20;;;5.65;;
23169;SDS011;11753;43.144;24.714;2023-03-14T01:17:52;8.95;;;5.25;;
23169;SDS011;11753;43.144;24.714;2023-03-14T01:18:53;8.35;;;5.00;;
23169;SDS011;11753;43.144;24.714;2023-03-14T01:19:54;7.85;;;5.32;;
23169;SDS011;11753;43.144;24.714;2023-03-14T01:20:55;11.27;;;5.65;;
23169;SDS011;11753;43.144;24.714;2023-03-14T01:21:56;11.50;;;5.75;;
23169;SDS011;11753;43.144;24.714;2023-03-14T01:22:56;8.77;;;4.97;;
23169;SDS011;11753;43.144;24.714;2023-03-14T01:23:58;8.95;;;5.72;;
23169;SDS011;11753;43.144;24.714;2023-03-14T01:25:00;9.18;;;5.05;;
23169;SDS011;11753;43.144;24.714;2023-03-14T01:26:01;11.25;;;5.30;;
23169;SDS011;11753;43.144;24.714;2023-03-14T01:27:02;7.65;;;4.95;;
23169;SDS011;11753;43.144;24.714;2023-03-14T01:28:03;7.90;;;4.80;;
23169;SDS011;11753;43.144;24.714;2023-03-14T01:30:26;10.65;;;5.15;;
23169;SDS011;11753;43.144;24.714;2023-03-14T01:31:27;6.95;;;5.05;;
23169;SDS011;11753;43.144;24.714;2023-03-14T01:32:28;7.82;;;5.00;;
23169;SDS011;11753;43.144;24.714;2023-03-14T01:33:29;10.48;;;5.35;;
23169;SDS011;11753;43.144;24.714;2023-03-14T01:34:30;8.32;;;5.20;;
23169;SDS011;11753;43.144;24.714;2023-03-14T01:35:31;10.98;;;5.03;;
23169;SDS011;11753;43.144;24.714;2023-03-14T01:36:32;10.52;;;5.72;;
23169;SDS011;11753;43.144;24.714;2023-03-14T01:37:33;9.02;;;5.65;;
23169;SDS011;11753;43.144;24.714;2023-03-14T01:38:34;10.65;;;6.57;;
23169;SDS011;11753;43.144;24.714;2023-03-14T01:39:36;11.23;;;6.38;;
23169;SDS011;11753;43.144;24.714;2023-03-14T01:40:43;9.68;;;6.25;;
23169;SDS011;11753;43.144;24.714;2023-03-14T01:41:45;8.35;;;5.43;;
23169;SDS011;11753;43.144;24.714;2023-03-14T01:42:56;10.13;;;5.78;;
23169;SDS011;11753;43.144;24.714;2023-03-14T01:44:05;11.55;;;6.13;;
23169;SDS011;11753;43.144;24.714;2023-03-14T01:46:48;8.50;;;5.28;;
23169;SDS011;11753;43.144;24.714;2023-03-14T01:47:49;11.20;;;5.22;;
23169;SDS011;11753;43.144;24.714;2023-03-14T01:48:57;8.38;;;5.38;;
23169;SDS011;11753;43.144;24.714;2023-03-14T01:50:06;7.70;;;4.90;;
23169;SDS011;11753;43.144;24.714;2023-03-14T01:51:19;8.18;;;5.15;;
23169;SDS011;11753;43.144;24.714;2023-03-14T01:52:53;9.32;;;5.22;;
23169;SDS011;11753;43.144;24.714;2023-03-14T01:53:54;7.40;;;4.85;;
23169;SDS011;11753;43.144;24.714;2023-03-14T01:55:06;16.83;;;5.80;;
23169;SDS011;11753;43.144;24.714;2023-03-14T01:56:13;6.43;;;3.90;;
23169;SDS011;11753;43.144;24.714;2023-03-14T01:58:28;11.63;;;5.28;;
23169;SDS011;11753;43.144;24.714;2023-03-14T01:59:31;10.38;;;5.38;;
23169;SDS011;11753;43.144;24.714;2023-03-14T02:00:34;7.53;;;4.53;;
23169;SDS011;11753;43.144;24.714;2023-03-14T02:01:35;9.30;;;5.13;;
23169;SDS011;11753;43.144;24.714;2023-03-14T02:02:37;11.73;;;5.38;;
23169;SDS011;11753;43.144;24.714;2023-03-14T02:04:00;9.95;;;5.00;;
23169;SDS011;11753;43.144;24.714;2023-03-14T02:05:03;8.68;;;4.57;;
23169;SDS011;11753;43.144;24.714;2023-03-14T02:06:06;9.85;;;5.30;;
23169;SDS011;11753;43.144;24.714;2023-03-14T02:07:19;8.98;;;4.97;;
23169;SDS011;11753;43.144;24.714;2023-03-14T02:08:25;8.35;;;5.03;;
23169;SDS011;11753;43.144;24.714;2023-03-14T02:09:27;10.15;;;5.18;;
23169;SDS011;11753;43.144;24.714;2023-03-14T02:10:31;9.05;;;5.00;;
23169;SDS011;11753;43.144;24.714;2023-03-14T02:11:36;7.07;;;4.82;;
23169;SDS011;11753;43.144;24.714;2023-03-14T02:12:37;7.63;;;4.97;;
23169;SDS011;11753;43.144;24.714;2023-03-14T02:13:39;8.23;;;5.13;;
23169;SDS011;11753;43.144;24.714;2023-03-14T02:14:40;10.90;;;5.25;;
23169;SDS011;11753;43.144;24.714;2023-03-14T02:15:47;10.38;;;4.95;;
23169;SDS011;11753;43.144;24.714;2023-03-14T02:16:48;10.18;;;5.38;;
23169;SDS011;11753;43.144;24.714;2023-03-14T02:17:49;9.52;;;5.22;;
23169;SDS011;11753;43.144;24.714;2023-03-14T02:18:51;9.57;;;5.20;;
23169;SDS011;11753;43.144;24.714;2023-03-14T02:21:22;9.45;;;4.90;;
23169;SDS011;11753;43.144;24.714;2023-03-14T02:22:35;9.02;;;4.85;;
23169;SDS011;11753;43.144;24.714;2023-03-14T02:24:25;9.88;;;5.13;;
23169;SDS011;11753;43.144;24.714;2023-03-14T02:28:06;8.50;;;5.10;;
23169;SDS011;11753;43.144;24.714;2023-03-14T02:29:08;10.93;;;5.05;;
23169;SDS011;11753;43.144;24.714;2023-03-14T02:30:13;7.85;;;4.82;;
23169;SDS011;11753;43.144;24.714;2023-03-14T02:31:16;10.75;;;5.10;;
23169;SDS011;11753;43.144;24.714;2023-03-14T02:32:17;8.57;;;5.25;;
23169;SDS011;11753;43.144;24.714;2023-03-14T02:33:21;11.18;;;5.30;;
23169;SDS011;11753;43.144;24.714;2023-03-14T02:34:23;8.95;;;5.55;;
23169;SDS011;11753;43.144;24.714;2023-03-14T02:35:29;9.00;;;5.30;;
23169;SDS011;11753;43.144;24.714;2023-03-14T02:36:40;9.00;;;5.10;;
23169;SDS011;11753;43.144;24.714;2023-03-14T02:37:47;8.80;;;4.95;;
23169;SDS011;11753;43.144;24.714;2023-03-14T02:39:13;8.75;;;4.85;;
23169;SDS011;11753;43.144;24.714;2023-03-14T02:40:20;9.10;;;4.97;;
23169;SDS011;11753;43.144;24.714;2023-03-14T02:41:22;8.93;;;4.97;;
23169;SDS011;11753;43.144;24.714;2023-03-14T02:42:23;8.82;;;5.03;;
23169;SDS011;11753;43.144;24.714;2023-03-14T02:43:24;10.82;;;4.40;;
23169;SDS011;11753;43.144;24.714;2023-03-14T02:44:25;7.05;;;4.63;;
23169;SDS011;11753;43.144;24.714;2023-03-14T02:45:35;10.48;;;4.85;;
23169;SDS011;11753;43.144;24.714;2023-03-14T02:46:35;9.20;;;4.50;;
23169;SDS011;11753;43.144;24.714;2023-03-14T02:47:37;8.70;;;4.40;;
23169;SDS011;11753;43.144;24.714;2023-03-14T02:48:44;10.85;;;5.25;;
23169;SDS011;11753;43.144;24.714;2023-03-14T02:50:00;10.38;;;5.07;;
23169;SDS011;11753;43.144;24.714;2023-03-14T02:51:04;7.50;;;4.57;;
23169;SDS011;11753;43.144;24.714;2023-03-14T02:52:05;11.55;;;5.40;;
23169;SDS011;11753;43.144;24.714;2023-03-14T02:53:06;8.95;;;4.97;;
23169;SDS011;11753;43.144;24.714;2023-03-14T02:54:07;9.52;;;4.90;;
23169;SDS011;11753;43.144;24.714;2023-03-14T02:55:08;11.45;;;4.90;;
23169;SDS011;11753;43.144;24.714;2023-03-14T02:56:10;9.48;;;4.80;;
23169;SDS011;11753;43.144;24.714;2023-03-14T02:57:12;9.45;;;5.35;;
23169;SDS011;11753;43.144;24.714;2023-03-14T02:58:13;7.93;;;4.85;;
23169;SDS011;11753;43.144;24.714;2023-03-14T02:59:14;7.63;;;4.90;;
23169;SDS011;11753;43.144;24.714;2023-03-14T03:00:15;8.77;;;5.28;;
23169;SDS011;11753;43.144;24.714;2023-03-14T03:01:17;9.98;;;5.07;;
23169;SDS011;11753;43.144;24.714;2023-03-14T03:02:18;8.95;;;5.22;;
23169;SDS011;11753;43.144;24.714;2023-03-14T03:03:18;6.97;;;4.47;;
23169;SDS011;11753;43.144;24.714;2023-03-14T03:04:19;7.82;;;4.50;;
23169;SDS011;11753;43.144;24.714;2023-03-14T03:05:20;8.02;;;4.38;;
23169;SDS011;11753;43.144;24.714;2023-03-14T03:06:21;10.60;;;4.90;;
23169;SDS011;11753;43.144;24.714;2023-03-14T03:07:22;8.70;;;5.00;;
23169;SDS011;11753;43.144;24.714;2023-03-14T03:08:24;7.38;;;4.85;;
23169;SDS011;11753;43.144;24.714;2023-03-14T03:09:27;9.00;;;5.13;;
23169;SDS011;11753;43.144;24.714;2023-03-14T03:10:28;8.02;;;4.53;;
23169;SDS011;11753;43.144;24.714;2023-03-14T03:11:29;10.75;;;5.15;;
23169;SDS011;11753;43.144;24.714;2023-03-14T03:12:32;8.70;;;4.78;;
23169;SDS011;11753;43.144;24.714;2023-03-14T03:13:33;9.43;;;4.68;;
23169;SDS011;11753;43.144;24.714;2023-03-14T03:14:34;9.63;;;4.75;;
23169;SDS011;11753;43.144;24.714;2023-03-14T03:15:35;8.10;;;5.00;;
23169;SDS011;11753;43.144;24.714;2023-03-14T03:16:36;7.50;;;4.75;;
23169;SDS011;11753;43.144;24.714;2023-03-14T03:17:36;8.38;;;4.53;;
23169;SDS011;11753;43.144;24.714;2023-03-14T03:18:37;9.98;;;5.07;;
23169;SDS011;11753;43.144;24.714;2023-03-14T03:19:38;8.20;;;4.68;;
23169;SDS011;11753;43.144;24.714;2023-03-14T03:20:39;8.45;;;4.70;;
23169;SDS011;11753;43.144;24.714;2023-03-14T03:21:40;9.23;;;4.65;;
23169;SDS011;11753;43.144;24.714;2023-03-14T03:22:41;7.22;;;4.57;;
23169;SDS011;11753;43.144;24.714;2023-03-14T03:23:42;10.60;;;5.35;;
23169;SDS011;11753;43.144;24.714;2023-03-14T03:24:43;7.55;;;4.43;;
23169;SDS011;11753;43.144;24.714;2023-03-14T03:25:51;9.13;;;5.25;;
23169;SDS011;11753;43.144;24.714;2023-03-14T03:26:52;9.35;;;5.38;;
23169;SDS011;11753;43.144;24.714;2023-03-14T03:27:53;6.75;;;4.70;;
23169;SDS011;11753;43.144;24.714;2023-03-14T03:28:55;9.27;;;4.95;;
23169;SDS011;11753;43.144;24.714;2023-03-14T03:29:56;9.30;;;5.28;;
23169;SDS011;11753;43.144;24.714;2023-03-14T03:30:57;9.13;;;4.60;;
23169;SDS011;11753;43.144;24.714;2023-03-14T03:31:57;9.75;;;4.60;;
23169;SDS011;11753;43.144;24.714;2023-03-14T03:32:58;8.55;;;4.60;;
23169;SDS011;11753;43.144;24.714;2023-03-14T03:33:59;7.68;;;4.80;;
23169;SDS011;11753;43.144;24.714;2023-03-14T03:35:01;7.72;;;4.47;;
23169;SDS011;11753;43.144;24.714;2023-03-14T03:36:03;8.32;;;4.60;;
23169;SDS011;11753;43.144;24.714;2023-03-14T03:37:04;8.55;;;4.72;;
23169;SDS011;11753;43.144;24.714;2023-03-14T03:38:05;8.98;;;5.30;;
23169;SDS011;11753;43.144;24.714;2023-03-14T03:39:09;10.30;;;5.15;;
23169;SDS011;11753;43.144;24.714;2023-03-14T03:40:10;9.35;;;4.80;;
23169;SDS011;11753;43.144;24.714;2023-03-14T03:41:11;8.68;;;5.00;;
23169;SDS011;11753;43.144;24.714;2023-03-14T03:42:12;8.98;;;4.82;;
23169;SDS011;11753;43.144;24.714;2023-03-14T03:43:12;10.95;;;5.18;;
23169;SDS011;11753;43.144;24.714;2023-03-14T03:44:13;8.50;;;5.15;;
23169;SDS011;11753;43.144;24.714;2023-03-14T03:45:14;9.02;;;5.30;;
23169;SDS011;11753;43.144;24.714;2023-03-14T03:46:15;11.52;;;6.40;;
23169;SDS011;11753;43.144;24.714;2023-03-14T03:47:16;9.68;;;4.97;;
23169;SDS011;11753;43.144;24.714;2023-03-14T03:48:17;9.40;;;5.65;;
23169;SDS011;11753;43.144;24.714;2023-03-14T03:49:18;8.57;;;5.43;;
23169;SDS011;11753;43.144;24.714;2023-03-14T03:50:19;7.85;;;4.57;;
23169;SDS011;11753;43.144;24.714;2023-03-14T03:51:20;9.30;;;5.32;;
23169;SDS011;11753;43.144;24.714;2023-03-14T03:52:21;13.07;;;5.20;;
23169;SDS011;11753;43.144;24.714;2023-03-14T03:53:22;7.80;;;4.53;;
23169;SDS011;11753;43.144;24.714;2023-03-14T03:54:23;6.97;;;4.75;;
23169;SDS011;11753;43.144;24.714;2023-03-14T03:55:24;10.30;;;6.25;;
23169;SDS011;11753;43.144;24.714;2023-03-14T03:56:26;9.75;;;5.88;;
23169;SDS011;11753;43.144;24.714;2023-03-14T03:57:27;8.65;;;5.15;;
23169;SDS011;11753;43.144;24.714;2023-03-14T03:58:28;9.88;;;6.10;;
23169;SDS011;11753;43.144;24.714;2023-03-14T03:59:29;10.05;;;6.07;;
23169;SDS011;11753;43.144;24.714;2023-03-14T04:00:30;10.60;;;5.35;;
23169;SDS011;11753;43.144;24.714;2023-03-14T04:01:32;9.40;;;5.28;;
23169;SDS011;11753;43.144;24.714;2023-03-14T04:02:33;8.10;;;4.88;;
23169;SDS011;11753;43.144;24.714;2023-03-14T04:03:34;15.10;;;9.82;;
23169;SDS011;11753;43.144;24.714;2023-03-14T04:04:35;9.88;;;5.80;;
23169;SDS011;11753;43.144;24.714;2023-03-14T04:05:37;14.85;;;6.68;;
23169;SDS011;11753;43.144;24.714;2023-03-14T04:06:38;9.73;;;6.18;;
23169;SDS011;11753;43.144;24.714;2023-03-14T04:07:42;9.75;;;6.35;;
23169;SDS011;11753;43.144;24.714;2023-03-14T04:08:43;13.85;;;10.07;;
23169;SDS011;11753;43.144;24.714;2023-03-14T04:09:44;13.73;;;7.75;;
23169;SDS011;11753;43.144;24.714;2023-03-14T04:10:45;12.02;;;7.32;;
23169;SDS011;11753;43.144;24.714;2023-03-14T04:11:46;25.77;;;17.45;;
23169;SDS011;11753;43.144;24.714;2023-03-14T04:12:47;23.10;;;14.13;;
23169;SDS011;11753;43.144;24.714;2023-03-14T04:13:48;17.88;;;8.82;;
23169;SDS011;11753;43.144;24.714;2023-03-14T04:14:49;13.38;;;8.10;;
23169;SDS011;11753;43.144;24.714;2023-03-14T04:15:50;10.30;;;6.30;;
23169;SDS011;11753;43.144;24.714;2023-03-14T04:16:51;11.88;;;6.03;;
23169;SDS011;11753;43.144;24.714;2023-03-14T04:17:56;14.80;;;8.13;;
23169;SDS011;11753;43.144;24.714;2023-03-14T04:18:58;10.52;;;6.30;;
23169;SDS011;11753;43.144;24.714;2023-03-14T04:19:59;11.70;;;5.50;;
23169;SDS011;11753;43.144;24.714;2023-03-14T04:20:59;7.50;;;4.78;;
23169;SDS011;11753;43.144;24.714;2023-03-14T04:22:00;8.15;;;4.50;;
23169;SDS011;11753;43.144;24.714;2023-03-14T04:23:01;7.07;;;4.57;;
23169;SDS011;11753;43.144;24.714;2023-03-14T04:24:02;8.60;;;4.90;;
23169;SDS011;11753;43.144;24.714;2023-03-14T04:25:04;7.90;;;4.60;;
23169;SDS011;11753;43.144;24.714;2023-03-14T04:26:06;7.22;;;4.45;;
23169;SDS011;11753;43.144;24.714;2023-03-14T04:27:07;7.90;;;4.47;;
23169;SDS011;11753;43.144;24.714;2023-03-14T04:28:08;7.57;;;4.72;;
23169;SDS011;11753;43.144;24.714;2023-03-14T04:29:09;8.32;;;4.63;;
23169;SDS011;11753;43.144;24.714;2023-03-14T04:30:10;10.20;;;4.88;;
23169;SDS011;11753;43.144;24.714;2023-03-14T04:31:12;8.73;;;4.55;;
23169;SDS011;11753;43.144;24.714;2023-03-14T04:32:15;8.57;;;4.50;;
23169;SDS011;11753;43.144;24.714;2023-03-14T04:33:15;8.15;;;4.75;;
23169;SDS011;11753;43.144;24.714;2023-03-14T04:34:17;9.18;;;4.88;;
23169;SDS011;11753;43.144;24.714;2023-03-14T04:35:18;8.88;;;5.07;;
23169;SDS011;11753;43.144;24.714;2023-03-14T04:36:19;9.90;;;4.72;;
23169;SDS011;11753;43.144;24.714;2023-03-14T04:37:20;11.00;;;5.40;;
23169;SDS011;11753;43.144;24.714;2023-03-14T04:38:21;10.02;;;5.38;;
23169;SDS011;11753;43.144;24.714;2023-03-14T04:39:22;11.05;;;5.15;;
23169;SDS011;11753;43.144;24.714;2023-03-14T04:40:23;8.18;;;4.82;;
23169;SDS011;11753;43.144;24.714;2023-03-14T04:41:24;10.15;;;6.10;;
23169;SDS011;11753;43.144;24.714;2023-03-14T04:42:25;9.07;;;5.13;;
23169;SDS011;11753;43.144;24.714;2023-03-14T04:43:26;7.95;;;4.80;;
23169;SDS011;11753;43.144;24.714;2023-03-14T04:44:27;9.68;;;5.18;;
23169;SDS011;11753;43.144;24.714;2023-03-14T04:45:28;7.57;;;4.47;;
23169;SDS011;11753;43.144;24.714;2023-03-14T04:46:28;8.82;;;5.00;;
23169;SDS011;11753;43.144;24.714;2023-03-14T04:47:29;11.48;;;5.22;;
23169;SDS011;11753;43.144;24.714;2023-03-14T04:48:30;9.55;;;4.70;;
23169;SDS011;11753;43.144;24.714;2023-03-14T04:49:31;8.32;;;5.00;;
23169;SDS011;11753;43.144;24.714;2023-03-14T04:50:32;8.10;;;5.40;;
23169;SDS011;11753;43.144;24.714;2023-03-14T04:51:33;11.00;;;5.00;;
23169;SDS011;11753;43.144;24.714;2023-03-14T04:52:35;9.18;;;5.10;;
23169;SDS011;11753;43.144;24.714;2023-03-14T04:53:36;8.57;;;5.20;;
23169;SDS011;11753;43.144;24.714;2023-03-14T04:54:37;8.30;;;4.95;;
23169;SDS011;11753;43.144;24.714;2023-03-14T04:55:38;9.55;;;5.13;;
23169;SDS011;11753;43.144;24.714;2023-03-14T04:56:39;8.38;;;5.30;;
23169;SDS011;11753;43.144;24.714;2023-03-14T04:57:39;7.63;;;5.15;;
23169;SDS011;11753;43.144;24.714;2023-03-14T04:58:40;9.88;;;6.10;;
23169;SDS011;11753;43.144;24.714;2023-03-14T04:59:41;11.00;;;5.78;;
23169;SDS011;11753;43.144;24.714;2023-03-14T05:00:42;12.73;;;6.28;;
23169;SDS011;11753;43.144;24.714;2023-03-14T05:01:43;10.18;;;5.50;;
23169;SDS011;11753;43.144;24.714;2023-03-14T05:02:44;8.90;;;4.85;;
23169;SDS011;11753;43.144;24.714;2023-03-14T05:03:45;9.85;;;4.85;;
23169;SDS011;11753;43.144;24.714;2023-03-14T05:04:46;8.57;;;4.50;;
23169;SDS011;11753;43.144;24.714;2023-03-14T05:05:47;10.20;;;5.20;;
23169;SDS011;11753;43.144;24.714;2023-03-14T05:06:48;8.95;;;4.57;;
23169;SDS011;11753;43.144;24.714;2023-03-14T05:07:49;8.48;;;4.70;;
23169;SDS011;11753;43.144;24.714;2023-03-14T05:08:50;9.82;;;4.75;;
23169;SDS011;11753;43.144;24.714;2023-03-14T05:09:50;10.38;;;5.03;;
23169;SDS011;11753;43.144;24.714;2023-03-14T05:10:53;7.82;;;4.10;;
23169;SDS011;11753;43.144;24.714;2023-03-14T05:11:55;7.47;;;4.57;;
23169;SDS011;11753;43.144;24.714;2023-03-14T05:12:56;7.55;;;4.30;;
23169;SDS011;11753;43.144;24.714;2023-03-14T05:13:57;7.90;;;4.25;;
23169;SDS011;11753;43.144;24.714;2023-03-14T05:14:58;10.30;;;5.00;;
23169;SDS011;11753;43.144;24.714;2023-03-14T05:16:06;9.95;;;4.45;;
23169;SDS011;11753;43.144;24.714;2023-03-14T05:17:09;8.93;;;4.32;;
23169;SDS011;11753;43.144;24.714;2023-03-14T05:18:10;6.70;;;4.43;;
23169;SDS011;11753;43.144;24.714;2023-03-14T05:19:11;8.07;;;4.65;;
23169;SDS011;11753;43.144;24.714;2023-03-14T05:20:12;8.35;;;4.82;;
23169;SDS011;11753;43.144;24.714;2023-03-14T05:21:15;7.35;;;4.10;;
23169;SDS011;11753;43.144;24.714;2023-03-14T05:22:17;6.93;;;4.10;;
23169;SDS011;11753;43.144;24.714;2023-03-14T05:23:18;10.68;;;4.78;;
23169;SDS011;11753;43.144;24.714;2023-03-14T05:24:19;9.55;;;4.65;;
23169;SDS011;11753;43.144;24.714;2023-03-14T05:25:20;7.22;;;4.70;;
23169;SDS011;11753;43.144;24.714;2023-03-14T05:26:21;7.25;;;4.35;;
23169;SDS011;11753;43.144;24.714;2023-03-14T05:27:22;9.50;;;4.70;;
23169;SDS011;11753;43.144;24.714;2023-03-14T05:28:23;8.45;;;4.55;;
23169;SDS011;11753;43.144;24.714;2023-03-14T05:29:24;13.45;;;5.55;;
23169;SDS011;11753;43.144;24.714;2023-03-14T05:30:25;9.27;;;5.35;;
23169;SDS011;11753;43.144;24.714;2023-03-14T05:31:28;9.82;;;5.40;;
23169;SDS011;11753;43.144;24.714;2023-03-14T05:32:28;14.85;;;7.32;;
23169;SDS011;11753;43.144;24.714;2023-03-14T05:33:29;20.63;;;12.30;;
23169;SDS011;11753;43.144;24.714;2023-03-14T05:34:30;21.27;;;12.27;;
23169;SDS011;11753;43.144;24.714;2023-03-14T05:35:31;11.68;;;7.47;;
23169;SDS011;11753;43.144;24.714;2023-03-14T05:36:32;9.38;;;5.75;;
23169;SDS011;11753;43.144;24.714;2023-03-14T05:37:33;10.52;;;5.13;;
23169;SDS011;11753;43.144;24.714;2023-03-14T05:38:35;9.88;;;5.00;;
23169;SDS011;11753;43.144;24.714;2023-03-14T05:39:36;7.60;;;4.35;;
23169;SDS011;11753;43.144;24.714;2023-03-14T05:40:37;8.10;;;3.97;;
23169;SDS011;11753;43.144;24.714;2023-03-14T05:41:38;8.70;;;4.55;;
23169;SDS011;11753;43.144;24.714;2023-03-14T05:42:39;8.05;;;4.72;;
23169;SDS011;11753;43.144;24.714;2023-03-14T05:43:40;17.48;;;12.85;;
23169;SDS011;11753;43.144;24.714;2023-03-14T05:44:41;11.63;;;8.05;;
23169;SDS011;11753;43.144;24.714;2023-03-14T05:45:42;9.98;;;6.70;;
23169;SDS011;11753;43.144;24.714;2023-03-14T05:46:43;7.32;;;5.32;;
23169;SDS011;11753;43.144;24.714;2023-03-14T05:47:44;10.85;;;5.35;;
23169;SDS011;11753;43.144;24.714;2023-03-14T05:48:45;8.40;;;4.90;;
23169;SDS011;11753;43.144;24.714;2023-03-14T05:49:46;9.48;;;5.50;;
23169;SDS011;11753;43.144;24.714;2023-03-14T05:50:47;8.68;;;4.75;;
23169;SDS011;11753;43.144;24.714;2023-03-14T05:51:48;10.73;;;4.15;;
23169;SDS011;11753;43.144;24.714;2023-03-14T05:52:49;8.73;;;4.60;;
23169;SDS011;11753;43.144;24.714;2023-03-14T05:53:50;7.90;;;4.57;;
23169;SDS011;11753;43.144;24.714;2023-03-14T05:54:51;7.60;;;4.45;;
23169;SDS011;11753;43.144;24.714;2023-03-14T05:55:53;11.15;;;5.97;;
23169;SDS011;11753;43.144;24.714;2023-03-14T05:56:54;9.80;;;5.18;;
23169;SDS011;11753;43.144;24.714;2023-03-14T05:57:55;9.88;;;4.95;;
23169;SDS011;11753;43.144;24.714;2023-03-14T05:58:56;10.02;;;4.45;;
23169;SDS011;11753;43.144;24.714;2023-03-14T05:59:57;10.48;;;5.70;;
23169;SDS011;11753;43.144;24.714;2023-03-14T06:01:01;9.00;;;5.13;;
23169;SDS011;11753;43.144;24.714;2023-03-14T06:02:03;10.75;;;4.90;;
23169;SDS011;11753;43.144;24.714;2023-03-14T06:03:04;9.93;;;5.18;;
23169;SDS011;11753;43.144;24.714;2023-03-14T06:04:05;9.82;;;4.93;;
23169;SDS011;11753;43.144;24.714;2023-03-14T06:05:06;8.45;;;5.90;;
23169;SDS011;11753;43.144;24.714;2023-03-14T06:06:08;8.75;;;5.60;;
23169;SDS011;11753;43.144;24.714;2023-03-14T06:07:09;12.75;;;7.25;;
23169;SDS011;11753;43.144;24.714;2023-03-14T06:08:10;12.65;;;7.40;;
23169;SDS011;11753;43.144;24.714;2023-03-14T06:09:12;13.02;;;7.32;;
23169;SDS011;11753;43.144;24.714;2023-03-14T06:10:13;8.05;;;5.43;;
23169;SDS011;11753;43.144;24.714;2023-03-14T06:11:14;20.67;;;11.90;;
23169;SDS011;11753;43.144;24.714;2023-03-14T06:12:14;19.00;;;12.32;;
23169;SDS011;11753;43.144;24.714;2023-03-14T06:13:15;11.35;;;7.97;;
23169;SDS011;11753;43.144;24.714;2023-03-14T06:14:17;11.75;;;6.30;;
23169;SDS011;11753;43.144;24.714;2023-03-14T06:15:18;7.30;;;5.05;;
23169;SDS011;11753;43.144;24.714;2023-03-14T06:16:19;7.05;;;4.65;;